Time;durP1;ratioP1;P1;durP2;ratioP2;P2;SDS_P1;SDS_P2;PMS_P1;PMS_P2;Temp;Humidity;BMP_temperature;BMP_pressure;BME280_temperature;BME280_humidity;BME280_pressure;Samples;Min_cycle;Max_cycle;Signal;HPM_P1;HPM_P2
2021/09/07 00:01:24;;;;;;;;;;;20.70;71.00;;;;;;5075715;28;1071;-73
2021/09/07 00:03:49;;;;;;;;;;;20.70;71.00;;;;;;5075263;28;1269;-74
2021/09/07 00:06:17;;;;;;;;;;;20.70;71.00;;;;;;5075490;28;1368;-73
2021/09/07 00:08:43;;;;;;;;;;;20.70;71.00;;;;;;5058325;28;1322;-75
2021/09/07 00:11:08;;;;;;;;;;;20.70;71.00;;;;;;5075608;28;1381;-73
2021/09/07 00:13:34;;;;;;;;;;;20.70;71.00;;;;;;5075265;28;1111;-73
2021/09/07 00:15:59;;;;;;;;;;;20.70;71.00;;;;;;5057471;28;1965;-73
2021/09/07 00:18:25;;;;;;;;;;;20.70;71.00;;;;;;5057445;28;1227;-73
2021/09/07 00:20:50;;;;;;;;;;;20.70;71.10;;;;;;5086253;28;1739;-73
2021/09/07 00:23:15;;;;;;;;;;;20.70;71.10;;;;;;5081673;28;1208;-72
2021/09/07 00:25:41;;;;;;;;;;;20.70;71.00;;;;;;5075404;28;1201;-73
2021/09/07 00:28:06;;;;;;;;;;;20.70;71.10;;;;;;5092560;28;1340;-72
2021/09/07 00:30:32;;;;;;;;;;;20.70;71.10;;;;;;5077228;28;1294;-71
2021/09/07 00:32:57;;;;;;;;;;;20.60;71.00;;;;;;5095339;28;1312;-72
2021/09/07 00:35:24;;;;;;;;;;;20.70;71.10;;;;;;5093926;28;1905;-72
2021/09/07 00:37:49;;;;;;;;;;;20.70;71.10;;;;;;5095329;28;1342;-71
2021/09/07 00:40:15;;;;;;;;;;;20.70;71.20;;;;;;5077554;28;1277;-71
2021/09/07 00:42:40;;;;;;;;;;;20.60;71.10;;;;;;5077081;28;1503;-72
2021/09/07 00:45:07;;;;;;;;;;;20.70;71.10;;;;;;5076700;28;1327;-71
2021/09/07 00:47:33;;;;;;;;;;;20.60;71.10;;;;;;5077087;28;1324;-72
2021/09/07 00:49:58;;;;;;;;;;;20.70;71.20;;;;;;5066765;28;1126;-72
2021/09/07 00:52:24;;;;;;;;;;;20.70;71.20;;;;;;5073733;28;1123;-72
2021/09/07 00:54:49;;;;;;;;;;;20.70;71.10;;;;;;5074236;28;1977;-72
2021/09/07 00:57:15;;;;;;;;;;;20.70;71.20;;;;;;5073452;28;1285;-72
2021/09/07 00:59:40;;;;;;;;;;;20.60;71.10;;;;;;5074779;28;1189;-73
2021/09/07 01:02:06;;;;;;;;;;;20.70;71.20;;;;;;5074560;28;1227;-72
2021/09/07 01:04:34;;;;;;;;;;;20.60;71.10;;;;;;5074237;28;1284;-72
2021/09/07 01:07:03;;;;;;;;;;;20.70;71.20;;;;;;5074460;28;1059;-71
2021/09/07 01:09:28;;;;;;;;;;;20.60;71.10;;;;;;5074731;28;1256;-72
2021/09/07 01:11:53;;;;;;;;;;;20.70;71.20;;;;;;5074873;28;1111;-72
2021/09/07 01:14:26;;;;;;;;;;;20.70;71.20;;;;;;5074147;28;1305;-73
2021/09/07 01:16:51;;;;;;;;;;;20.70;71.20;;;;;;5056261;28;1354;-71
2021/09/07 01:19:17;;;;;;;;;;;20.60;71.20;;;;;;5074245;28;1274;-71
2021/09/07 01:21:42;;;;;;;;;;;20.60;71.20;;;;;;5074407;28;1271;-71
2021/09/07 01:24:08;;;;;;;;;;;20.70;71.20;;;;;;5073950;28;1243;-71
2021/09/07 01:26:33;;;;;;;;;;;20.70;71.20;;;;;;5073826;28;1368;-72
2021/09/07 01:28:58;;;;;;;;;;;20.60;71.20;;;;;;5074348;28;1269;-72
2021/09/07 01:31:24;;;;;;;;;;;20.70;71.30;;;;;;5073876;28;1285;-73
2021/09/07 01:33:49;;;;;;;;;;;20.70;71.30;;;;;;5073693;28;1352;-71
2021/09/07 01:36:15;;;;;;;;;;;20.60;71.20;;;;;;5073687;28;1894;-71
2021/09/07 01:38:41;;;;;;;;;;;20.60;71.30;;;;;;5073968;28;1300;-72
2021/09/07 01:41:06;;;;;;;;;;;20.60;71.20;;;;;;5056075;28;1262;-74
2021/09/07 01:43:31;;;;;;;;;;;20.60;71.20;;;;;;5073567;28;1063;-74
2021/09/07 01:45:57;;;;;;;;;;;20.60;71.20;;;;;;5055433;28;1374;-73
2021/09/07 01:48:23;;;;;;;;;;;20.70;71.30;;;;;;5055892;28;1282;-74
2021/09/07 01:50:48;;;;;;;;;;;20.60;71.30;;;;;;5055785;28;1300;-74
2021/09/07 01:53:14;;;;;;;;;;;20.60;71.30;;;;;;5055478;28;1075;-72
2021/09/07 01:55:39;;;;;;;;;;;20.60;71.30;;;;;;5073309;28;1982;-72
2021/09/07 01:58:05;;;;;;;;;;;20.60;71.30;;;;;;5073509;28;1274;-72
2021/09/07 02:00:30;;;;;;;;;;;20.60;71.30;;;;;;5073204;28;1360;-72
2021/09/07 02:02:56;;;;;;;;;;;20.60;72.10;;;;;;5055690;28;1321;-71
2021/09/07 02:05:21;;;;;;;;;;;20.60;71.30;;;;;;5055229;28;1332;-72
2021/09/07 02:07:47;;;;;;;;;;;20.60;71.30;;;;;;5073642;28;1289;-72
2021/09/07 02:10:12;;;;;;;;;;;20.60;71.30;;;;;;5073307;28;1318;-71
2021/09/07 02:12:38;;;;;;;;;;;20.60;71.30;;;;;;5055522;28;1155;-71
2021/09/07 02:15:03;;;;;;;;;;;20.60;71.30;;;;;;5054872;28;1906;-72
2021/09/07 02:17:29;;;;;;;;;;;20.60;71.30;;;;;;5073182;28;1271;-72
2021/09/07 02:19:54;;;;;;;;;;;20.60;71.30;;;;;;5073078;28;1224;-72
2021/09/07 02:22:20;;;;;;;;;;;20.60;71.30;;;;;;5055290;28;1345;-74
2021/09/07 02:24:45;;;;;;;;;;;20.70;72.20;;;;;;5072489;28;1393;-72
2021/09/07 02:27:11;;;;;;;;;;;20.60;71.40;;;;;;5058055;23;3740;-70
2021/09/07 02:29:36;;;;;;;;;;;20.60;71.40;;;;;;5048847;28;1372;-70
2021/09/07 02:32:02;;;;;;;;;;;20.60;72.20;;;;;;5053106;28;1348;-70
2021/09/07 02:34:27;;;;;;;;;;;20.60;71.40;;;;;;5052936;28;1989;-69
2021/09/07 02:36:53;;;;;;;;;;;20.60;71.40;;;;;;5053194;28;1427;-69
2021/09/07 02:39:18;;;;;;;;;;;20.60;71.40;;;;;;5052179;28;1644;-69
2021/09/07 02:41:43;;;;;;;;;;;20.60;71.80;;;;;;5052299;28;1271;-68
2021/09/07 02:44:09;;;;;;;;;;;20.60;71.50;;;;;;5051582;28;1616;-68
2021/09/07 02:46:34;;;;;;;;;;;20.60;71.50;;;;;;5052336;28;1393;-67
2021/09/07 02:49:00;;;;;;;;;;;20.60;71.50;;;;;;5050871;28;1148;-68
2021/09/07 02:51:25;;;;;;;;;;;20.60;71.50;;;;;;5040524;28;1680;-67
2021/09/07 02:53:51;;;;;;;;;;;20.60;71.50;;;;;;5052342;28;1694;-68
2021/09/07 02:56:16;;;;;;;;;;;20.60;71.50;;;;;;5052457;28;1895;-68
2021/09/07 02:58:41;;;;;;;;;;;20.60;71.50;;;;;;5050953;28;1293;-68
2021/09/07 03:01:07;;;;;;;;;;;20.60;71.50;;;;;;5052476;28;1291;-68
2021/09/07 03:03:33;;;;;;;;;;;20.60;71.50;;;;;;5051157;28;1320;-67
2021/09/07 03:06:00;;;;;;;;;;;20.60;71.50;;;;;;5052587;28;1385;-68
2021/09/07 03:08:26;;;;;;;;;;;20.60;71.50;;;;;;5052673;28;1193;-68
2021/09/07 03:10:51;;;;;;;;;;;20.60;71.50;;;;;;5052674;28;1283;-68
2021/09/07 03:13:16;;;;;;;;;;;20.60;71.50;;;;;;5052409;28;1251;-67
2021/09/07 03:15:42;;;;;;;;;;;20.60;71.50;;;;;;5052614;28;1906;-67
2021/09/07 03:18:08;;;;;;;;;;;20.60;71.50;;;;;;5052510;28;1130;-68
2021/09/07 03:20:34;;;;;;;;;;;20.60;71.50;;;;;;5052525;28;1080;-68
2021/09/07 03:22:59;;;;;;;;;;;20.60;71.50;;;;;;5052493;28;1234;-68
2021/09/07 03:25:25;;;;;;;;;;;20.60;71.50;;;;;;5051893;28;1349;-68
2021/09/07 03:27:50;;;;;;;;;;;20.60;71.50;;;;;;5052581;28;1329;-68
2021/09/07 03:30:15;;;;;;;;;;;20.60;71.50;;;;;;5052372;28;1302;-68
2021/09/07 03:32:41;;;;;;;;;;;20.60;71.50;;;;;;5051253;28;1305;-68
2021/09/07 03:35:07;;;;;;;;;;;20.60;71.50;;;;;;5051971;28;1906;-68
2021/09/07 03:37:32;;;;;;;;;;;20.60;71.50;;;;;;5052542;28;1170;-68
2021/09/07 03:39:58;;;;;;;;;;;20.60;71.40;;;;;;5051221;28;1344;-68
2021/09/07 03:42:23;;;;;;;;;;;20.60;71.40;;;;;;5052565;28;1342;-68
2021/09/07 03:44:49;;;;;;;;;;;20.60;71.40;;;;;;5051833;28;1068;-67
2021/09/07 03:47:14;;;;;;;;;;;20.60;71.40;;;;;;5052164;28;1322;-68
2021/09/07 03:49:40;;;;;;;;;;;20.60;71.40;;;;;;5052256;28;1259;-67
2021/09/07 03:52:05;;;;;;;;;;;20.70;71.40;;;;;;5052375;28;1319;-68
2021/09/07 03:54:31;;;;;;;;;;;20.60;71.30;;;;;;5051900;28;1965;-67
2021/09/07 03:56:56;;;;;;;;;;;20.60;71.30;;;;;;5051315;28;1219;-67
2021/09/07 03:59:22;;;;;;;;;;;20.60;71.30;;;;;;5051978;28;1063;-67
2021/09/07 04:01:47;;;;;;;;;;;20.60;71.30;;;;;;5052101;28;1267;-67
2021/09/07 04:04:13;;;;;;;;;;;20.60;71.20;;;;;;5052076;28;1130;-68
2021/09/07 04:06:38;;;;;;;;;;;20.60;71.20;;;;;;5052017;28;1432;-67
2021/09/07 04:09:04;;;;;;;;;;;20.70;71.20;;;;;;5052100;28;1345;-67
2021/09/07 04:11:29;;;;;;;;;;;20.70;71.20;;;;;;5054328;28;1119;-67
2021/09/07 04:13:55;;;;;;;;;;;20.70;71.20;;;;;;5055682;28;1139;-67
2021/09/07 04:16:20;;;;;;;;;;;20.70;71.20;;;;;;5055297;28;1902;-67
2021/09/07 04:18:45;;;;;;;;;;;20.70;71.20;;;;;;5055624;28;1060;-67
2021/09/07 04:21:12;;;;;;;;;;;20.70;71.20;;;;;;5055420;28;1195;-67
2021/09/07 04:23:38;;;;;;;;;;;20.70;71.20;;;;;;5055253;28;1130;-68
2021/09/07 04:26:04;;;;;;;;;;;20.70;71.10;;;;;;5053868;28;1307;-67
2021/09/07 04:28:30;;;;;;;;;;;20.70;71.10;;;;;;5055200;28;1344;-68
2021/09/07 04:30:55;;;;;;;;;;;20.70;71.10;;;;;;5055296;28;1325;-68
2021/09/07 04:33:21;;;;;;;;;;;20.70;71.10;;;;;;5055013;28;1059;-67
2021/09/07 04:35:46;;;;;;;;;;;20.70;71.10;;;;;;5054966;28;1973;-68
2021/09/07 04:38:12;;;;;;;;;;;20.70;71.10;;;;;;5055332;28;1091;-68
2021/09/07 04:40:37;;;;;;;;;;;20.70;71.00;;;;;;5055008;28;1087;-68
2021/09/07 04:43:03;;;;;;;;;;;20.70;71.00;;;;;;5054920;28;1076;-67
2021/09/07 04:45:28;;;;;;;;;;;20.70;71.00;;;;;;5054674;28;1295;-67
2021/09/07 04:47:53;;;;;;;;;;;20.70;71.00;;;;;;5055153;28;1240;-68
2021/09/07 04:50:19;;;;;;;;;;;20.70;71.00;;;;;;5054838;28;1285;-68
2021/09/07 04:52:44;;;;;;;;;;;20.70;71.00;;;;;;5054994;28;1332;-67
2021/09/07 04:55:10;;;;;;;;;;;20.70;71.00;;;;;;5054272;28;1905;-67
2021/09/07 04:57:35;;;;;;;;;;;20.70;71.00;;;;;;5054644;28;1230;-68
2021/09/07 05:00:01;;;;;;;;;;;20.70;71.00;;;;;;5054762;28;1266;-67
2021/09/07 05:02:26;;;;;;;;;;;20.70;70.90;;;;;;5054694;28;1382;-67
2021/09/07 05:04:51;;;;;;;;;;;20.70;71.00;;;;;;5054446;28;1329;-67
2021/09/07 05:07:17;;;;;;;;;;;20.80;71.00;;;;;;5054381;28;1283;-67
2021/09/07 05:09:42;;;;;;;;;;;20.70;70.90;;;;;;5054630;28;1143;-67
2021/09/07 05:12:08;;;;;;;;;;;20.70;70.90;;;;;;5054458;28;1288;-67
2021/09/07 05:14:33;;;;;;;;;;;20.70;70.90;;;;;;5053910;28;1906;-67
2021/09/07 05:16:58;;;;;;;;;;;20.70;70.90;;;;;;5054313;28;1365;-67
2021/09/07 05:19:24;;;;;;;;;;;20.80;71.00;;;;;;5054458;28;1335;-68
2021/09/07 05:21:49;;;;;;;;;;;20.70;70.90;;;;;;5053949;28;1131;-67
2021/09/07 05:24:15;;;;;;;;;;;20.80;71.00;;;;;;5054002;28;1158;-68
2021/09/07 05:26:40;;;;;;;;;;;20.80;71.00;;;;;;5053813;28;1285;-67
2021/09/07 05:29:06;;;;;;;;;;;20.80;71.00;;;;;;5054156;28;1122;-68
2021/09/07 05:31:32;;;;;;;;;;;20.70;70.90;;;;;;5052921;28;1250;-67
2021/09/07 05:33:57;;;;;;;;;;;20.70;70.90;;;;;;5053986;28;1198;-67
2021/09/07 05:36:23;;;;;;;;;;;20.80;70.90;;;;;;5052626;28;1976;-67
2021/09/07 05:38:48;;;;;;;;;;;20.80;70.90;;;;;;5054040;28;1292;-68
2021/09/07 05:41:14;;;;;;;;;;;20.80;70.90;;;;;;5053870;28;1107;-68
2021/09/07 05:43:39;;;;;;;;;;;20.80;70.90;;;;;;5053611;28;1267;-68
2021/09/07 05:46:05;;;;;;;;;;;20.70;70.80;;;;;;5053653;28;1282;-68
2021/09/07 05:48:30;;;;;;;;;;;20.70;70.80;;;;;;5053439;28;1036;-67
2021/09/07 05:50:55;;;;;;;;;;;20.80;70.90;;;;;;5053697;28;1237;-67
2021/09/07 05:53:21;;;;;;;;;;;20.70;70.80;;;;;;5053604;28;1197;-67
2021/09/07 05:55:46;;;;;;;;;;;20.80;70.90;;;;;;5053442;28;1968;-67
2021/09/07 05:58:12;;;;;;;;;;;20.80;70.90;;;;;;5053492;28;1331;-68
2021/09/07 06:00:37;;;;;;;;;;;20.80;70.90;;;;;;5053740;28;1242;-68
2021/09/07 06:03:08;;;;;;;;;;;20.70;70.70;;;;;;5053493;28;1307;-67
2021/09/07 06:05:34;;;;;;;;;;;20.80;70.40;;;;;;5053551;28;1361;-67
2021/09/07 06:07:59;;;;;;;;;;;20.80;70.10;;;;;;5043955;28;1811;-68
2021/09/07 06:10:24;;;;;;;;;;;20.80;70.30;;;;;;5038421;28;1126;-68
2021/09/07 06:12:50;;;;;;;;;;;20.80;70.00;;;;;;5049600;28;1173;-68
2021/09/07 06:15:15;;;;;;;;;;;20.80;70.00;;;;;;5050895;28;1906;-68
2021/09/07 06:17:41;;;;;;;;;;;20.80;69.90;;;;;;5053377;28;1367;-68
2021/09/07 06:20:06;;;;;;;;;;;20.70;69.70;;;;;;5053160;28;1323;-68
2021/09/07 06:22:32;;;;;;;;;;;20.80;69.80;;;;;;5042034;28;1154;-68
2021/09/07 06:24:57;;;;;;;;;;;20.70;69.70;;;;;;5041430;28;1111;-67
2021/09/07 06:27:23;;;;;;;;;;;20.80;69.80;;;;;;5052852;28;1385;-68
2021/09/07 06:29:48;;;;;;;;;;;20.80;69.80;;;;;;5053303;28;1311;-68
2021/09/07 06:32:16;;;;;;;;;;;20.70;69.70;;;;;;5052983;28;1500;-68
2021/09/07 06:34:41;;;;;;;;;;;20.80;69.90;;;;;;5052177;28;1975;-68
2021/09/07 06:37:07;;;;;;;;;;;20.70;69.90;;;;;;5052945;28;1336;-68
2021/09/07 06:39:32;;;;;;;;;;;20.80;70.00;;;;;;5053013;28;1334;-68
2021/09/07 06:41:58;;;;;;;;;;;20.80;70.00;;;;;;5052861;28;1318;-68
2021/09/07 06:44:23;;;;;;;;;;;20.70;69.80;;;;;;5052700;28;1361;-68
2021/09/07 06:46:48;;;;;;;;;;;20.80;69.80;;;;;;5052743;28;1359;-68
2021/09/07 06:49:14;;;;;;;;;;;20.70;69.80;;;;;;5052825;28;1325;-68
2021/09/07 06:51:39;;;;;;;;;;;20.70;70.60;;;;;;5052866;28;1257;-68
2021/09/07 06:54:05;;;;;;;;;;;20.80;69.90;;;;;;5053143;28;1270;-68
2021/09/07 06:56:30;;;;;;;;;;;20.70;69.80;;;;;;5052286;28;1959;-68
2021/09/07 06:58:56;;;;;;;;;;;20.70;69.90;;;;;;5052727;28;1309;-67
2021/09/07 07:01:21;;;;;;;;;;;20.70;69.80;;;;;;5052691;28;1123;-67
2021/09/07 07:03:46;;;;;;;;;;;20.70;69.70;;;;;;5052572;28;1308;-67
2021/09/07 07:06:12;;;;;;;;;;;20.70;69.60;;;;;;5052584;28;1397;-67
2021/09/07 07:08:37;;;;;;;;;;;20.70;69.70;;;;;;5052709;28;1339;-67
2021/09/07 07:11:03;;;;;;;;;;;20.70;69.90;;;;;;5052454;28;1666;-67
2021/09/07 07:13:28;;;;;;;;;;;20.70;69.80;;;;;;5052419;28;1326;-67
2021/09/07 07:15:54;;;;;;;;;;;20.70;69.80;;;;;;5052546;28;1897;-67
2021/09/07 07:18:19;;;;;;;;;;;20.70;69.90;;;;;;5052733;28;1403;-67
2021/09/07 07:20:45;;;;;;;;;;;20.70;69.70;;;;;;5052457;28;1333;-67
2021/09/07 07:23:10;;;;;;;;;;;20.70;69.70;;;;;;5051105;28;1212;-68
2021/09/07 07:25:35;;;;;;;;;;;20.70;69.70;;;;;;5051939;28;1283;-67
2021/09/07 07:28:01;;;;;;;;;;;20.70;69.70;;;;;;5052736;28;1336;-67
2021/09/07 07:30:26;;;;;;;;;;;20.70;69.60;;;;;;5052491;28;1262;-67
2021/09/07 07:32:52;;;;;;;;;;;20.70;69.70;;;;;;5052405;28;1200;-67
2021/09/07 07:35:18;;;;;;;;;;;20.70;69.70;;;;;;5052141;28;1969;-68
2021/09/07 07:37:43;;;;;;;;;;;20.70;69.90;;;;;;5052279;28;1267;-67
2021/09/07 07:40:09;;;;;;;;;;;20.70;69.90;;;;;;5052318;28;1328;-67
2021/09/07 07:42:34;;;;;;;;;;;20.70;69.90;;;;;;5052865;28;1275;-67
2021/09/07 07:44:59;;;;;;;;;;;20.70;69.90;;;;;;5053797;28;1244;-67
2021/09/07 07:47:25;;;;;;;;;;;20.70;70.00;;;;;;5056122;28;1302;-67
2021/09/07 07:49:50;;;;;;;;;;;20.70;70.10;;;;;;5056199;28;1256;-67
2021/09/07 07:52:16;;;;;;;;;;;20.70;70.10;;;;;;5055905;28;1233;-67
2021/09/07 07:54:41;;;;;;;;;;;20.70;70.10;;;;;;5055535;28;1913;-67
2021/09/07 07:57:07;;;;;;;;;;;20.70;70.10;;;;;;5055689;28;1362;-67
2021/09/07 07:59:32;;;;;;;;;;;20.70;70.10;;;;;;5056103;28;1242;-67
2021/09/07 08:01:58;;;;;;;;;;;20.70;70.10;;;;;;5055858;28;1271;-67
2021/09/07 08:04:23;;;;;;;;;;;20.70;70.20;;;;;;5055702;28;1391;-68
2021/09/07 08:06:49;;;;;;;;;;;20.70;70.10;;;;;;5055775;28;1413;-67
2021/09/07 08:09:14;;;;;;;;;;;20.70;70.20;;;;;;5055738;28;1362;-67
2021/09/07 08:11:39;;;;;;;;;;;20.70;70.20;;;;;;5055644;28;1358;-67
2021/09/07 08:14:05;;;;;;;;;;;20.70;70.10;;;;;;5055559;28;1331;-67
2021/09/07 08:16:31;;;;;;;;;;;20.70;70.20;;;;;;5054175;28;1910;-67
2021/09/07 08:18:56;;;;;;;;;;;20.70;70.10;;;;;;5055781;28;1317;-67
2021/09/07 08:21:22;;;;;;;;;;;20.70;69.70;;;;;;5055549;28;1247;-68
2021/09/07 08:23:47;;;;;;;;;;;20.70;69.50;;;;;;5055256;28;1286;-67
2021/09/07 08:26:12;;;;;;;;;;;20.70;69.50;;;;;;5071582;23;3688;-73
2021/09/07 08:28:38;;;;;;;;;;;20.70;69.60;;;;;;5073959;28;1113;-73
2021/09/07 08:31:03;;;;;;;;;;;20.70;69.70;;;;;;5074939;28;1450;-73
2021/09/07 08:33:29;;;;;;;;;;;20.70;69.80;;;;;;5072616;28;1280;-73
2021/09/07 08:35:54;;;;;;;;;;;20.70;69.80;;;;;;5074399;28;1989;-73
2021/09/07 08:38:20;;;;;;;;;;;20.70;69.90;;;;;;5074941;28;1304;-73
2021/09/07 08:40:45;;;;;;;;;;;20.70;69.80;;;;;;5056797;28;1298;-71
2021/09/07 08:43:11;;;;;;;;;;;20.70;69.70;;;;;;5056726;28;1272;-71
2021/09/07 08:45:39;;;;;;;;;;;20.70;69.80;;;;;;5037173;28;1237;-71
2021/09/07 08:48:04;;;;;;;;;;;20.70;69.70;;;;;;5055054;28;1324;-71
2021/09/07 08:50:30;;;;;;;;;;;20.70;69.60;;;;;;5046086;28;1099;-71
2021/09/07 08:52:56;;;;;;;;;;;20.70;69.80;;;;;;5073011;28;1358;-71
2021/09/07 08:55:21;;;;;;;;;;;20.70;69.70;;;;;;5068081;28;1957;-71
2021/09/07 08:57:47;;;;;;;;;;;20.70;69.50;;;;;;5073463;28;1322;-71
2021/09/07 09:00:12;;;;;;;;;;;20.70;69.50;;;;;;5074350;28;1339;-71
2021/09/07 09:02:38;;;;;;;;;;;20.80;69.60;;;;;;5074559;28;1085;-71
2021/09/07 09:05:04;;;;;;;;;;;20.80;69.50;;;;;;5074101;28;1232;-71
2021/09/07 09:07:30;;;;;;;;;;;20.70;69.40;;;;;;5055915;28;1332;-71
2021/09/07 09:09:57;;;;;;;;;;;20.80;69.50;;;;;;5074199;28;1371;-71
2021/09/07 09:12:29;;;;;;;;;;;20.80;69.10;;;;;;5074460;28;1261;-71
2021/09/07 09:14:56;;;;;;;;;;;20.70;68.70;;;;;;5073718;28;1890;-71
2021/09/07 09:17:22;;;;;;;;;;;20.80;68.80;;;;;;5056335;28;1382;-71
2021/09/07 09:19:55;;;;;;;;;;;20.70;68.70;;;;;;5056087;28;1446;-71
2021/09/07 09:22:21;;;;;;;;;;;20.80;68.90;;;;;;5073320;28;1332;-71
2021/09/07 09:24:46;;;;;;;;;;;20.80;69.10;;;;;;5073791;28;1284;-71
2021/09/07 09:29:47;;;;;;;;;;;20.80;69.10;;;;;;5681785;23;1815;-71
2021/09/07 09:32:13;;;;;;;;;;;20.80;69.20;;;;;;5045235;28;1959;-71
2021/09/07 09:34:39;;;;;;;;;;;20.80;69.30;;;;;;5048415;28;1323;-70
2021/09/07 09:37:08;;;;;;;;;;;20.80;69.10;;;;;;5054202;28;1895;-71
2021/09/07 09:39:37;;;;;;;;;;;20.80;69.20;;;;;;5050338;28;1377;-70
2021/09/07 09:42:03;;;;;;;;;;;20.80;69.40;;;;;;5016359;28;1076;-71
2021/09/07 09:44:28;;;;;;;;;;;20.80;69.60;;;;;;5053801;23;2072;-66
2021/09/07 09:46:54;;;;;;;;;;;20.80;69.40;;;;;;5049937;28;1867;-66
2021/09/07 09:49:19;;;;;;;;;;;20.80;69.10;;;;;;5044607;28;1427;-66
2021/09/07 09:51:44;;;;;;;;;;;20.80;69.40;;;;;;5035040;28;1639;-66
2021/09/07 09:54:10;;;;;;;;;;;20.80;69.70;;;;;;5016140;28;1716;-66
2021/09/07 09:56:35;;;;;;;;;;;20.80;69.80;;;;;;5004643;28;1910;-66
2021/09/07 09:59:02;;;;;;;;;;;20.80;70.00;;;;;;5033225;28;1656;-66
2021/09/07 10:01:27;;;;;;;;;;;20.80;69.80;;;;;;5027355;28;1566;-66
2021/09/07 10:03:54;;;;;;;;;;;20.90;69.70;;;;;;4996529;28;1541;-66
2021/09/07 10:06:20;;;;;;;;;;;20.80;70.00;;;;;;5013982;28;1358;-66
2021/09/07 10:08:45;;;;;;;;;;;20.80;70.20;;;;;;5025346;28;1409;-66
2021/09/07 10:11:11;;;;;;;;;;;20.80;70.20;;;;;;5034418;28;2064;-66
2021/09/07 10:13:37;;;;;;;;;;;20.80;70.30;;;;;;5019835;28;1284;-66
2021/09/07 10:16:08;;;;;;;;;;;20.80;70.10;;;;;;5019695;28;1899;-66
2021/09/07 10:26:36;;;;;;;;;;;20.80;70.70;;;;;;5020042;28;1290;-66
2021/09/07 10:29:02;;;;;;;;;;;20.90;70.80;;;;;;5032882;28;1298;-66
2021/09/07 10:31:37;;;;;;;;;;;20.80;70.80;;;;;;5039378;28;1330;-66
2021/09/07 10:34:02;;;;;;;;;;;20.90;70.70;;;;;;5027507;28;1346;-66
2021/09/07 10:36:30;;;;;;;;;;;20.90;69.30;;;;;;5013233;28;1981;-66
2021/09/07 10:38:57;;;;;;;;;;;20.90;69.50;;;;;;5013141;28;1273;-66
2021/09/07 10:41:34;;;;;;;;;;;20.90;69.60;;;;;;5013190;28;1426;-66
2021/09/07 10:44:06;;;;;;;;;;;20.90;69.60;;;;;;5013091;28;1268;-66
2021/09/07 10:46:47;;;;;;;;;;;20.90;70.00;;;;;;5013151;28;1410;-66
2021/09/07 10:49:17;;;;;;;;;;;20.90;70.20;;;;;;4995394;28;1318;-66
2021/09/07 10:52:01;;;;;;;;;;;20.90;70.60;;;;;;5006552;28;1253;-66
2021/09/07 10:54:27;;;;;;;;;;;20.90;70.20;;;;;;5032860;28;1418;-66
2021/09/07 10:56:56;;;;;;;;;;;20.90;69.60;;;;;;5013571;28;1961;-66
2021/09/07 10:59:40;;;;;;;;;;;20.90;69.60;;;;;;4995637;28;1252;-66
2021/09/07 11:02:24;;;;;;;;;;;20.90;69.70;;;;;;5013032;28;1426;-66
2021/09/07 11:04:50;;;;;;;;;;;20.90;69.40;;;;;;5012923;28;1477;-66
2021/09/07 11:07:30;;;;;;;;;;;20.90;69.50;;;;;;4995528;28;1168;-66
2021/09/07 11:09:56;;;;;;;;;;;20.90;69.80;;;;;;5012772;28;1283;-66
2021/09/07 11:12:24;;;;;;;;;;;20.90;69.90;;;;;;5013003;28;1288;-66
2021/09/07 11:15:08;;;;;;;;;;;20.90;70.00;;;;;;5012783;28;1890;-66
2021/09/07 11:17:34;;;;;;;;;;;20.90;70.10;;;;;;4995575;28;1366;-66
2021/09/07 11:20:04;;;;;;;;;;;21.00;70.10;;;;;;5014355;28;1240;-66
2021/09/07 11:22:30;;;;;;;;;;;20.90;69.90;;;;;;5017105;28;1305;-66
2021/09/07 11:25:02;;;;;;;;;;;20.90;69.30;;;;;;5007475;28;1293;-66
2021/09/07 11:27:46;;;;;;;;;;;20.90;69.20;;;;;;5029153;28;1261;-66
2021/09/07 11:30:18;;;;;;;;;;;20.90;69.20;;;;;;5018619;28;1270;-66
2021/09/07 11:32:43;;;;;;;;;;;20.90;69.50;;;;;;5036711;28;1322;-66
2021/09/07 11:35:09;;;;;;;;;;;20.90;69.40;;;;;;5036328;28;1898;-66
2021/09/07 11:37:34;;;;;;;;;;;20.90;69.60;;;;;;5036522;28;1275;-66
2021/09/07 11:40:06;;;;;;;;;;;20.90;69.70;;;;;;5036081;28;1343;-66
2021/09/07 11:42:40;;;;;;;;;;;20.90;69.80;;;;;;5036472;28;1285;-67
2021/09/07 11:45:06;;;;;;;;;;;20.90;69.70;;;;;;5018243;28;1249;-66
2021/09/07 11:47:31;;;;;;;;;;;20.90;69.60;;;;;;5033175;28;2434;-66
2021/09/07 11:49:57;;;;;;;;;;;20.90;69.50;;;;;;5022740;28;1260;-66
2021/09/07 11:52:22;;;;;;;;;;;20.90;69.30;;;;;;5009132;28;1245;-66
2021/09/07 11:54:48;;;;;;;;;;;20.90;69.20;;;;;;5007841;28;1376;-66
2021/09/07 11:57:13;;;;;;;;;;;20.90;69.20;;;;;;5022726;28;1910;-66
2021/09/07 11:59:39;;;;;;;;;;;20.90;69.40;;;;;;5035493;28;1345;-66
2021/09/07 12:02:08;;;;;;;;;;;20.90;69.20;;;;;;5028130;28;1814;-67
2021/09/07 12:04:34;;;;;;;;;;;20.90;69.10;;;;;;5020727;28;1454;-67
2021/09/07 12:07:04;;;;;;;;;;;20.90;69.00;;;;;;5022380;28;1301;-67
2021/09/07 12:09:30;;;;;;;;;;;20.90;69.10;;;;;;5001035;28;2083;-66
2021/09/07 12:12:06;;;;;;;;;;;20.90;68.90;;;;;;5018927;28;1721;-66
2021/09/07 12:14:38;;;;;;;;;;;20.90;69.00;;;;;;5033006;28;1427;-67
2021/09/07 12:17:04;;;;;;;;;;;20.90;69.00;;;;;;5028174;28;2339;-67
2021/09/07 12:19:35;;;;;;;;;;;20.90;68.70;;;;;;5030564;28;1308;-67
2021/09/07 12:22:04;;;;;;;;;;;20.90;68.70;;;;;;5015532;28;1320;-67
2021/09/07 12:24:30;;;;;;;;;;;20.90;68.80;;;;;;5018641;28;1278;-67
2021/09/07 12:26:55;;;;;;;;;;;20.90;68.90;;;;;;5021366;28;1139;-67
2021/09/07 12:29:21;;;;;;;;;;;20.90;68.80;;;;;;5015305;28;1120;-66
2021/09/07 12:31:46;;;;;;;;;;;20.90;69.00;;;;;;5014381;28;1263;-67
2021/09/07 12:34:21;;;;;;;;;;;20.90;69.00;;;;;;5015762;28;1318;-66
2021/09/07 12:36:50;;;;;;;;;;;20.90;69.10;;;;;;5016379;28;1903;-67
2021/09/07 12:39:16;;;;;;;;;;;20.90;69.10;;;;;;5025078;28;1178;-66
2021/09/07 12:41:43;;;;;;;;;;;20.90;69.10;;;;;;5015254;28;1358;-66
2021/09/07 12:44:10;;;;;;;;;;;20.90;69.20;;;;;;4997881;28;1301;-66
2021/09/07 12:46:35;;;;;;;;;;;20.90;69.10;;;;;;4997835;28;1343;-67
2021/09/07 12:49:01;;;;;;;;;;;20.90;69.00;;;;;;5014821;28;1315;-66
2021/09/07 12:51:27;;;;;;;;;;;20.90;69.00;;;;;;5023627;28;1286;-66
2021/09/07 12:53:58;;;;;;;;;;;20.90;68.80;;;;;;5034742;28;1251;-67
2021/09/07 12:56:25;;;;;;;;;;;20.90;69.00;;;;;;5019553;28;1973;-67
2021/09/07 12:58:51;;;;;;;;;;;20.90;68.90;;;;;;4997733;28;1491;-67
2021/09/07 13:01:20;;;;;;;;;;;20.90;68.80;;;;;;5025485;28;2391;-66
2021/09/07 13:03:47;;;;;;;;;;;20.90;68.60;;;;;;5018023;28;1690;-67
2021/09/07 13:06:13;;;;;;;;;;;20.90;68.50;;;;;;5030515;28;1613;-66
2021/09/07 13:08:38;;;;;;;;;;;20.90;68.50;;;;;;5010409;28;1565;-67
2021/09/07 13:11:04;;;;;;;;;;;20.90;68.40;;;;;;5020041;28;1570;-67
2021/09/07 13:13:29;;;;;;;;;;;21.00;68.10;;;;;;5009840;28;2444;-67
2021/09/07 13:15:55;;;;;;;;;;;20.90;68.10;;;;;;5030408;28;1894;-67
2021/09/07 13:18:20;;;;;;;;;;;20.90;68.00;;;;;;5019432;28;1147;-67
2021/09/07 13:20:46;;;;;;;;;;;21.00;68.00;;;;;;5021683;28;1165;-67
2021/09/07 13:23:11;;;;;;;;;;;21.00;67.90;;;;;;5014832;28;1272;-67
2021/09/07 13:25:37;;;;;;;;;;;21.00;67.80;;;;;;5023628;28;1258;-67
2021/09/07 13:28:02;;;;;;;;;;;21.00;67.70;;;;;;5026071;28;1185;-67
2021/09/07 13:30:30;;;;;;;;;;;21.00;67.70;;;;;;5013601;28;1123;-67
2021/09/07 13:32:55;;;;;;;;;;;21.00;67.50;;;;;;5013943;28;1291;-67
2021/09/07 13:35:21;;;;;;;;;;;21.00;67.80;;;;;;5014024;28;1902;-67
2021/09/07 13:37:46;;;;;;;;;;;21.00;68.00;;;;;;5016167;28;1281;-67
2021/09/07 13:40:12;;;;;;;;;;;20.90;67.90;;;;;;5028405;28;1218;-67
2021/09/07 13:42:37;;;;;;;;;;;21.00;67.90;;;;;;5018142;28;1377;-67
2021/09/07 13:45:03;;;;;;;;;;;21.00;67.60;;;;;;5014091;28;1294;-66
2021/09/07 13:47:28;;;;;;;;;;;20.90;67.90;;;;;;5014359;28;1238;-66
2021/09/07 13:49:54;;;;;;;;;;;20.90;68.10;;;;;;5013891;28;1257;-66
2021/09/07 13:52:19;;;;;;;;;;;20.90;67.90;;;;;;5029714;28;1643;-66
2021/09/07 13:54:45;;;;;;;;;;;20.90;68.20;;;;;;5032112;28;1303;-67
2021/09/07 13:57:10;;;;;;;;;;;21.00;68.10;;;;;;5013967;28;1971;-67
2021/09/07 13:59:35;;;;;;;;;;;20.90;67.60;;;;;;5013829;28;1334;-67
2021/09/07 14:02:01;;;;;;;;;;;20.90;67.60;;;;;;5013764;28;1363;-66
2021/09/07 14:04:26;;;;;;;;;;;20.90;67.50;;;;;;5013798;28;1283;-67
2021/09/07 14:06:52;;;;;;;;;;;20.90;67.50;;;;;;5013508;28;1391;-67
2021/09/07 14:11:52;;;;;;;;;;;20.90;67.90;;;;;;5239786;23;2259;-73
2021/09/07 14:14:18;;;;;;;;;;;20.90;68.00;;;;;;5040295;28;1976;-73
2021/09/07 14:16:43;;;;;;;;;;;20.90;67.90;;;;;;5035821;28;1917;-73
2021/09/07 14:19:09;;;;;;;;;;;21.00;67.70;;;;;;5028341;28;1552;-73
2021/09/07 14:21:34;;;;;;;;;;;20.90;67.60;;;;;;5055111;28;1479;-74
2021/09/07 14:24:00;;;;;;;;;;;20.90;67.80;;;;;;5056067;28;1354;-73
2021/09/07 14:26:25;;;;;;;;;;;20.90;67.70;;;;;;5051578;28;1428;-73
2021/09/07 14:28:50;;;;;;;;;;;20.90;67.70;;;;;;5044258;28;1488;-73
2021/09/07 14:31:16;;;;;;;;;;;20.90;67.60;;;;;;5050046;28;1956;-73
2021/09/07 14:33:41;;;;;;;;;;;20.90;67.50;;;;;;5049437;28;1854;-73
2021/09/07 14:36:07;;;;;;;;;;;20.90;67.40;;;;;;5045241;28;1986;-73
2021/09/07 14:38:32;;;;;;;;;;;20.90;67.50;;;;;;5049124;28;1514;-73